Time;durP1;ratioP1;P1;durP2;ratioP2;P2;SDS_P1;SDS_P2;PMS_P1;PMS_P2;Temp;Humidity;BMP_temperature;BMP_pressure;BME280_temperature;BME280_humidity;BME280_pressure;Samples;Min_cycle;Max_cycle;Signal;HPM_P1;HPM_P2
2021/04/01 00:01:09;;;;;;;8.27;5.40;;;8.90;52.10;;;;;;6050522;23;20092;-88
2021/04/01 00:03:45;;;;;;;9.30;5.40;;;8.90;52.10;;;;;;6051817;23;20009;-88
2021/04/01 00:06:15;;;;;;;7.18;4.75;;;8.90;52.20;;;;;;6077135;23;20033;-87
2021/04/01 00:08:41;;;;;;;6.88;4.35;;;8.90;52.30;;;;;;6051248;23;20021;-89
2021/04/01 00:11:09;;;;;;;5.63;3.97;;;8.90;52.50;;;;;;6050934;23;20067;-87
2021/04/01 00:13:36;;;;;;;5.90;4.47;;;8.90;53.90;;;;;;6074015;23;20017;-87
2021/04/01 00:16:03;;;;;;;6.55;5.30;;;8.90;52.70;;;;;;6035257;23;20464;-91
2021/04/01 00:18:30;;;;;;;10.02;5.32;;;8.90;54.10;;;;;;6031824;23;20048;-88
2021/04/01 00:20:56;;;;;;;9.05;7.38;;;8.90;53.00;;;;;;6034375;23;20013;-88
2021/04/01 00:23:23;;;;;;;7.85;5.15;;;8.90;53.00;;;;;;6036120;23;20108;-88
2021/04/01 00:25:50;;;;;;;6.63;5.20;;;8.90;53.00;;;;;;6053768;23;20017;-87
2021/04/01 00:28:17;;;;;;;7.47;3.92;;;8.90;52.90;;;;;;6003879;23;20480;-89
2021/04/01 00:30:43;;;;;;;4.75;3.97;;;8.90;52.80;;;;;;6030077;23;20021;-89
2021/04/01 00:33:09;;;;;;;9.30;5.72;;;9.00;52.80;;;;;;6028824;23;20024;-88
2021/04/01 00:35:36;;;;;;;9.27;4.95;;;9.00;52.70;;;;;;6029589;23;20021;-86
2021/04/01 00:38:02;;;;;;;12.95;7.30;;;9.00;52.50;;;;;;6037229;23;20519;-87
2021/04/01 00:40:29;;;;;;;6.28;4.93;;;9.10;52.40;;;;;;6027664;23;20361;-89
2021/04/01 00:42:55;;;;;;;7.60;5.88;;;9.20;52.10;;;;;;6047667;23;20093;-88
2021/04/01 00:45:22;;;;;;;11.20;6.85;;;9.20;52.10;;;;;;6069830;23;20024;-89
2021/04/01 00:47:52;;;;;;;7.00;4.63;;;9.20;52.00;;;;;;6047134;23;20164;-90
2021/04/01 00:50:27;;;;;;;9.40;6.97;;;9.20;52.00;;;;;;6025039;23;20014;-89
2021/04/01 00:52:54;;;;;;;16.58;7.75;;;9.10;52.10;;;;;;6050589;23;20024;-88
2021/04/01 00:55:20;;;;;;;8.63;6.57;;;9.20;52.30;;;;;;6024279;23;20090;-89
2021/04/01 00:57:49;;;;;;;;;;;9.10;52.20;;;;;;6026497;23;20021;-88
2021/04/01 01:00:19;;;;;;;11.80;6.85;;;9.10;52.30;;;;;;6027532;23;19979;-89
2021/04/01 01:02:45;;;;;;;7.47;6.15;;;9.20;52.20;;;;;;6031612;23;20342;-88
2021/04/01 01:05:13;;;;;;;5.30;4.22;;;9.20;52.20;;;;;;6034132;23;20014;-88
2021/04/01 01:07:40;;;;;;;8.75;5.93;;;9.20;52.20;;;;;;6036086;23;20174;-89
2021/04/01 01:10:13;;;;;;;6.72;4.78;;;9.20;52.30;;;;;;6039957;23;20028;-88
2021/04/01 01:12:40;;;;;;;9.98;5.60;;;9.10;52.30;;;;;;6047371;23;20017;-88
2021/04/01 01:15:08;;;;;;;8.52;5.18;;;9.10;52.40;;;;;;6047025;23;20028;-89
2021/04/01 01:17:35;;;;;;;5.05;4.30;;;9.20;52.40;;;;;;6060726;23;20017;-90
2021/04/01 01:20:01;;;;;;;9.23;5.75;;;9.20;52.30;;;;;;6038672;23;20037;-89
2021/04/01 01:22:28;;;;;;;10.95;6.05;;;9.20;52.30;;;;;;6011014;23;20025;-90
2021/04/01 01:24:54;;;;;;;7.32;5.93;;;9.20;52.40;;;;;;6055688;23;20018;-89
2021/04/01 01:27:21;;;;;;;12.45;6.68;;;9.20;52.50;;;;;;6005929;23;20055;-89
2021/04/01 01:29:48;;;;;;;13.07;7.90;;;9.10;52.70;;;;;;6027582;23;20485;-89
2021/04/01 01:32:16;;;;;;;10.20;6.50;;;9.10;52.80;;;;;;6071128;23;20017;-88
2021/04/01 01:34:43;;;;;;;8.57;5.97;;;9.20;52.80;;;;;;6102997;23;20017;-87
2021/04/01 01:37:10;;;;;;;6.95;5.10;;;9.20;52.60;;;;;;6033078;23;20009;-90
2021/04/01 01:39:37;;;;;;;8.38;5.10;;;9.20;52.50;;;;;;6051599;23;20013;-91
2021/04/01 01:42:04;;;;;;;6.10;4.95;;;9.30;52.40;;;;;;6052194;23;20064;-89
2021/04/01 01:44:31;;;;;;;5.75;4.78;;;9.20;52.40;;;;;;6053458;23;20021;-89
2021/04/01 01:46:59;;;;;;;6.03;5.03;;;9.20;52.50;;;;;;6004619;23;20076;-89
2021/04/01 01:49:25;;;;;;;9.55;7.32;;;9.20;52.70;;;;;;6001366;23;20100;-90
2021/04/01 01:51:52;;;;;;;10.10;6.80;;;9.10;52.70;;;;;;6050123;23;20021;-90
2021/04/01 01:54:19;;;;;;;9.15;6.57;;;9.10;52.90;;;;;;6027651;23;20025;-91
2021/04/01 01:56:46;;;;;;;8.18;5.32;;;9.10;52.90;;;;;;6032776;23;20021;-93
2021/04/01 01:59:16;;;;;;;9.60;5.32;;;9.10;53.00;;;;;;6013711;23;20032;-93
2021/04/01 02:01:44;;;;;;;7.70;5.95;;;9.10;52.90;;;;;;6082715;23;20088;-91
2021/04/01 02:04:30;;;;;;;6.10;5.00;;;9.10;52.90;;;;;;6048422;23;20025;-94
2021/04/01 02:07:01;;;;;;;9.65;6.50;;;9.10;53.10;;;;;;6089149;23;20025;-92
2021/04/01 02:09:35;;;;;;;9.35;5.85;;;9.10;53.10;;;;;;6038318;23;20096;-92
2021/04/01 02:12:14;;;;;;;10.98;7.15;;;9.10;53.10;;;;;;6066942;23;20013;-91
2021/04/01 02:15:15;;;;;;;8.75;5.68;;;9.10;53.20;;;;;;6090623;23;20017;-93
2021/04/01 02:18:01;;;;;;;12.20;7.22;;;9.10;53.10;;;;;;6108029;23;20035;-92
2021/04/01 02:20:28;;;;;;;10.48;7.13;;;9.10;53.20;;;;;;6031347;23;20389;-92
2021/04/01 02:23:05;;;;;;;10.00;6.60;;;9.10;53.20;;;;;;6024375;23;20485;-94
2021/04/01 02:25:49;;;;;;;9.25;5.90;;;9.10;53.30;;;;;;6096872;23;20024;-92
2021/04/01 02:28:36;;;;;;;15.07;7.50;;;9.10;53.40;;;;;;6074772;23;20013;-94
2021/04/01 02:31:27;;;;;;;10.93;7.00;;;9.10;53.20;;;;;;6067217;23;20017;-92
2021/04/01 02:34:00;;;;;;;10.18;6.38;;;9.10;53.10;;;;;;6094193;23;20010;-91
2021/04/01 02:36:27;;;;;;;8.45;5.45;;;9.10;53.10;;;;;;6084822;23;20001;-91
2021/04/01 02:38:56;;;;;;;8.27;5.82;;;9.10;53.20;;;;;;6091598;23;20080;-93
2021/04/01 02:47:52;;;;;;;7.45;6.68;;;9.10;53.30;;;;;;6067514;23;20145;-92
2021/04/01 02:50:19;;;;;;;10.30;6.50;;;9.00;53.50;;;;;;6002091;23;20014;-94
2021/04/01 02:52:46;;;;;;;6.57;4.88;;;9.00;53.70;;;;;;5965443;23;20097;-84
2021/04/01 02:55:13;;;;;;;13.05;8.48;;;9.00;53.80;;;;;;5940632;23;20014;-86
2021/04/01 02:57:39;;;;;;;;;;;9.10;53.60;;;;;;5983468;23;20086;-87
2021/04/01 03:00:11;;;;;;;11.23;6.50;;;9.10;53.60;;;;;;5967188;23;19955;-88
2021/04/01 03:02:41;;;;;;;10.48;8.00;;;9.10;53.60;;;;;;6017524;23;20014;-87
2021/04/01 03:05:09;;;;;;;7.70;6.28;;;9.00;53.90;;;;;;5963929;23;20446;-88
2021/04/01 03:07:37;;;;;;;7.82;5.80;;;8.90;54.10;;;;;;6009464;23;20102;-84
2021/04/01 03:10:09;;;;;;;8.75;7.38;;;8.90;54.20;;;;;;5963769;23;20023;-87
2021/04/01 03:12:36;;;;;;;14.35;8.73;;;8.90;54.20;;;;;;5990720;23;20026;-85
2021/04/01 03:15:05;;;;;;;10.00;6.63;;;8.90;54.20;;;;;;5970379;23;20022;-86
2021/04/01 03:17:31;;;;;;;14.00;6.70;;;8.90;54.30;;;;;;6004498;23;20026;-89
2021/04/01 03:19:58;;;;;;;11.95;7.68;;;8.90;54.50;;;;;;5984495;23;20085;-91
2021/04/01 03:22:25;;;;;;;13.10;8.07;;;8.90;54.60;;;;;;5971808;23;20015;-89
2021/04/01 03:24:55;;;;;;;13.27;8.63;;;8.90;54.40;;;;;;5947232;23;20019;-89
2021/04/01 03:27:22;;;;;;;8.48;5.53;;;8.90;54.30;;;;;;5969832;23;20034;-89
2021/04/01 03:30:07;;;;;;;11.40;6.35;;;9.00;54.20;;;;;;5976881;23;20034;-89
2021/04/01 03:32:39;;;;;;;5.55;4.97;;;9.00;54.10;;;;;;5973649;23;20038;-88
2021/04/01 03:35:08;;;;;;;9.65;5.88;;;9.00;54.10;;;;;;5963347;23;20058;-85
2021/04/01 03:37:34;;;;;;;12.18;8.80;;;9.00;54.20;;;;;;5984186;23;20065;-85
2021/04/01 03:40:00;;;;;;;11.32;7.03;;;9.00;54.20;;;;;;5958359;23;20018;-85
2021/04/01 03:42:27;;;;;;;11.18;7.35;;;9.00;54.10;;;;;;5958395;23;20029;-85
2021/04/01 03:44:57;;;;;;;11.80;7.43;;;9.00;54.10;;;;;;5984705;23;20034;-90
2021/04/01 03:47:23;;;;;;;9.07;6.32;;;9.00;54.10;;;;;;5939659;23;20086;-86
2021/04/01 03:49:50;;;;;;;7.88;7.05;;;9.00;54.20;;;;;;5936876;23;20078;-87
2021/04/01 03:52:16;;;;;;;11.82;6.18;;;9.00;54.20;;;;;;5982537;23;20014;-88
2021/04/01 03:54:46;;;;;;;7.07;4.70;;;9.10;54.10;;;;;;5986372;23;20045;-87
2021/04/01 03:57:13;;;;;;;9.40;6.82;;;9.10;54.00;;;;;;5947136;23;20093;-88
2021/04/01 04:02:33;;;;;;;9.68;5.55;;;9.10;53.60;;;;;;5994995;23;20023;-85
2021/04/01 04:05:20;;;;;;;15.48;8.88;;;9.20;53.60;;;;;;5985275;23;20042;-85
2021/04/01 04:08:20;;;;;;;9.82;6.43;;;9.10;53.60;;;;;;6033337;23;20034;-87
2021/04/01 04:11:23;;;;;;;11.07;6.50;;;9.10;53.70;;;;;;6018409;23;20042;-88
2021/04/01 04:14:06;;;;;;;7.82;6.07;;;9.10;53.80;;;;;;6028663;23;20022;-86
2021/04/01 04:16:43;;;;;;;8.98;6.45;;;9.00;53.90;;;;;;5980802;23;20449;-86
2021/04/01 04:19:15;;;;;;;12.40;8.60;;;9.00;54.00;;;;;;6019259;23;20019;-89
2021/04/01 04:21:48;;;;;;;9.45;6.78;;;9.10;54.10;;;;;;5969718;23;20021;-86
2021/04/01 04:24:34;;;;;;;10.25;7.15;;;9.10;53.90;;;;;;5979009;24;20038;-90
2021/04/01 04:27:56;;;;;;;8.13;6.47;;;9.10;54.00;;;;;;5981674;24;20023;-89
2021/04/01 04:30:02;;;;;;;6.38;5.22;;;9.10;54.10;;;;;;5939121;24;20098;-86
2021/04/01 04:32:32;;;;;;;12.57;7.65;;;9.10;54.00;;;;;;5931695;24;20023;-88
2021/04/01 04:34:59;;;;;;;10.00;9.00;;;9.20;53.80;;;;;;5929467;24;20091;-89
2021/04/01 04:37:27;;;;;;;9.60;8.05;;;9.20;53.80;;;;;;5909667;24;20149;-88
2021/04/01 04:39:53;;;;;;;11.48;7.13;;;9.20;53.80;;;;;;5944241;24;20023;-88
2021/04/01 04:42:20;;;;;;;10.70;7.05;;;9.20;53.90;;;;;;5922611;24;20062;-90
2021/04/01 04:44:48;;;;;;;7.88;4.85;;;9.30;53.80;;;;;;5950138;24;20463;-89
2021/04/01 04:47:16;;;;;;;11.80;6.97;;;9.40;53.60;;;;;;5925250;24;20023;-90
2021/04/01 04:49:43;;;;;;;12.48;7.53;;;9.40;53.20;;;;;;5924052;24;20031;-87
2021/04/01 04:52:10;;;;;;;6.45;5.03;;;9.50;53.10;;;;;;5944006;24;20165;-88
2021/04/01 04:54:42;;;;;;;16.55;8.43;;;9.50;53.10;;;;;;5944094;24;20023;-90
2021/04/01 04:57:34;;;;;;;9.32;6.80;;;9.50;53.00;;;;;;5949867;24;20028;-88
2021/04/01 05:00:20;;;;;;;10.60;6.82;;;9.60;52.80;;;;;;5951841;23;20034;-86
2021/04/01 05:05:28;;;;;;;10.03;6.83;;;9.60;52.60;;;;;;5978749;23;20091;-89
2021/04/01 05:07:55;;;;;;;11.10;6.65;;;9.60;52.80;;;;;;5955303;23;20004;-91
2021/04/01 05:10:22;;;;;;;8.43;6.65;;;9.60;52.60;;;;;;5945987;23;20049;-90
2021/04/01 05:12:54;;;;;;;12.23;7.43;;;9.60;52.70;;;;;;5964762;23;20018;-90
2021/04/01 05:15:20;;;;;;;10.80;7.10;;;9.60;52.80;;;;;;6018336;23;20033;-89
2021/04/01 05:17:47;;;;;;;8.65;6.15;;;9.70;52.70;;;;;;6005191;23;20028;-91
2021/04/01 05:20:18;;;;;;;6.47;3.72;;;9.60;52.70;;;;;;6004838;23;20010;-88
2021/04/01 05:25:14;;;;;;;4.35;3.90;;;9.60;52.80;;;;;;6023227;23;20018;-86
2021/04/01 05:28:19;;;;;;;9.35;6.30;;;9.60;52.60;;;;;;6023217;23;20029;-90
2021/04/01 05:30:33;;;;;;;11.15;7.35;;;9.60;52.80;;;;;;6019412;23;20026;-90
2021/04/01 05:32:59;;;;;;;7.65;6.07;;;9.50;52.90;;;;;;5993327;23;20413;-89
2021/04/01 05:35:26;;;;;;;8.23;5.68;;;9.60;53.20;;;;;;6017050;23;20073;-87
2021/04/01 05:37:54;;;;;;;12.38;8.55;;;9.60;52.90;;;;;;5972945;23;20018;-90
2021/04/01 05:40:21;;;;;;;8.73;5.63;;;9.60;52.80;;;;;;6046415;23;20014;-89
2021/04/01 05:42:48;;;;;;;12.63;7.38;;;9.60;53.00;;;;;;5999850;23;20465;-86
2021/04/01 05:45:29;;;;;;;6.35;5.00;;;9.60;52.90;;;;;;6024330;23;20014;-89
2021/04/01 05:48:00;;;;;;;8.10;6.28;;;9.60;52.90;;;;;;6003585;23;20022;-89
2021/04/01 06:04:41;;;;;;;8.13;6.28;;;9.70;52.90;;;;;;6034581;23;20041;-91
2021/04/01 06:07:24;;;;;;;7.32;5.82;;;9.70;53.60;;;;;;6011634;23;20041;-93
2021/04/01 06:12:31;;;;;;;8.48;6.38;;;9.70;53.80;;;;;;6023607;23;20057;-93
2021/04/01 06:15:12;;;;;;;6.10;5.10;;;9.60;53.80;;;;;;6026148;23;20441;-95
2021/04/01 06:17:48;;;;;;;12.45;7.50;;;9.60;53.90;;;;;;6045947;23;20022;-90
2021/04/01 06:20:15;;;;;;;8.15;6.85;;;9.60;54.00;;;;;;6031811;23;20014;-91
2021/04/01 06:22:43;;;;;;;8.57;5.13;;;9.60;53.90;;;;;;6037377;23;20003;-92
2021/04/01 06:25:37;;;;;;;6.47;5.80;;;9.60;54.20;;;;;;6011994;23;20028;-90
2021/04/01 06:28:14;;;;;;;6.82;6.10;;;9.60;54.00;;;;;;6038600;23;20022;-94
2021/04/01 06:30:52;;;;;;;9.52;7.63;;;9.70;53.50;;;;;;5995403;23;20088;-91
2021/04/01 06:33:23;;;;;;;9.05;6.63;;;9.70;52.90;;;;;;6013220;23;20029;-91
2021/04/01 06:38:56;;;;;;;8.52;6.43;;;9.70;54.50;;;;;;6019126;23;20033;-94
2021/04/01 06:41:29;;;;;;;5.88;4.78;;;9.80;53.10;;;;;;5992432;23;20018;-93
2021/04/01 06:44:07;;;;;;;6.85;6.00;;;9.90;52.60;;;;;;6012127;23;20022;-93
2021/04/01 06:46:52;;;;;;;7.15;4.78;;;10.00;52.40;;;;;;6057839;23;20018;-94
2021/04/01 06:52:12;;;;;;;8.43;6.18;;;10.40;51.80;;;;;;6006745;23;20037;-91
2021/04/01 07:02:29;;;;;;;7.57;5.25;;;10.60;50.10;;;;;;6058328;23;20019;-91
2021/04/01 07:05:01;;;;;;;8.77;6.47;;;10.70;50.20;;;;;;5987813;23;20027;-92
2021/04/01 07:07:28;;;;;;;8.48;7.00;;;10.90;49.30;;;;;;5962832;23;20030;-93
2021/04/01 07:15:50;;;;;;;6.63;5.03;;;11.30;48.40;;;;;;6046309;23;20026;-93
2021/04/01 07:21:07;;;;;;;7.10;5.57;;;11.70;47.20;;;;;;5959057;23;20013;-93
2021/04/01 07:30:54;;;;;;;7.90;5.63;;;11.70;46.40;;;;;;5985652;23;20034;-91
2021/04/01 07:34:32;;;;;;;9.93;6.95;;;11.60;46.40;;;;;;5974275;23;20086;-93
2021/04/01 07:46:30;;;;;;;9.45;5.57;;;11.20;48.20;;;;;;5990925;23;20034;-92
2021/04/01 07:49:10;;;;;;;7.03;5.72;;;11.20;47.80;;;;;;5966546;23;20018;-91
2021/04/01 07:54:10;;;;;;;12.20;6.85;;;11.10;48.00;;;;;;5990568;23;20010;-93
2021/04/01 07:56:44;;;;;;;10.55;6.65;;;11.00;48.30;;;;;;5986593;23;20041;-92
2021/04/01 08:02:31;;;;;;;4.18;3.50;;;11.00;48.40;;;;;;6052360;23;20034;-91
2021/04/01 08:05:02;;;;;;;5.63;4.57;;;11.00;48.70;;;;;;5989269;23;19999;-87
2021/04/01 08:07:33;;;;;;;9.30;6.00;;;11.00;48.50;;;;;;5995404;23;20016;-87
2021/04/01 08:10:05;;;;;;;6.80;5.43;;;11.10;48.40;;;;;;5985516;23;20021;-84
2021/04/01 08:12:36;;;;;;;3.88;3.47;;;11.10;48.10;;;;;;6030984;23;20073;-84
2021/04/01 08:15:12;;;;;;;5.53;4.65;;;11.00;48.00;;;;;;5967185;23;20025;-90
2021/04/01 08:17:46;;;;;;;13.48;7.45;;;10.90;48.30;;;;;;5986912;23;20388;-84
2021/04/01 08:20:19;;;;;;;12.50;7.18;;;11.00;48.60;;;;;;5945837;23;20545;-86
2021/04/01 08:23:03;;;;;;;6.50;5.35;;;11.00;48.30;;;;;;5964076;23;20006;-84
2021/04/01 08:25:33;;;;;;;7.72;6.25;;;11.00;48.30;;;;;;5923092;23;20050;-84
2021/04/01 08:33:34;;;;;;;8.52;6.05;;;10.80;48.90;;;;;;6012049;23;20000;-85
2021/04/01 08:36:01;;;;;;;4.03;3.65;;;10.80;48.90;;;;;;5967210;23;20502;-84
2021/04/01 08:38:28;;;;;;;9.73;6.03;;;10.80;48.90;;;;;;5918398;23;20037;-84
2021/04/01 08:40:55;;;;;;;5.05;4.45;;;10.70;48.90;;;;;;5962526;23;20081;-83
2021/04/01 08:43:55;;;;;;;5.15;4.60;;;10.60;49.20;;;;;;5964280;23;20018;-82
2021/04/01 08:46:57;;;;;;;5.53;4.72;;;10.60;49.30;;;;;;5992764;23;20010;-88
2021/04/01 08:49:47;;;;;;;11.15;9.10;;;10.50;49.40;;;;;;5981103;23;20089;-86
2021/04/01 08:52:37;;;;;;;9.80;6.68;;;10.40;49.70;;;;;;5997159;23;20018;-86
2021/04/01 08:55:17;;;;;;;7.65;6.18;;;10.40;50.10;;;;;;5990498;23;20084;-82
2021/04/01 08:58:17;;;;;;;5.75;4.90;;;10.40;49.90;;;;;;6041023;23;20014;-83
2021/04/01 09:00:44;;;;;;;8.55;6.57;;;10.40;50.10;;;;;;6018859;23;20057;-82
2021/04/01 09:03:15;;;;;;;7.57;4.57;;;10.50;50.10;;;;;;6019640;23;20045;-85
2021/04/01 09:05:55;;;;;;;5.53;4.55;;;10.40;49.90;;;;;;6042789;23;20006;-83
2021/04/01 09:08:25;;;;;;;6.32;5.45;;;10.40;50.10;;;;;;6041650;23;20002;-82
2021/04/01 09:10:55;;;;;;;6.22;5.63;;;10.50;50.10;;;;;;6014242;23;20006;-87
2021/04/01 09:13:33;;;;;;;9.07;5.75;;;10.60;49.90;;;;;;5991820;23;20076;-84
2021/04/01 09:16:12;;;;;;;5.05;4.43;;;10.70;49.70;;;;;;6016112;23;20006;-83
2021/04/01 09:18:38;;;;;;;5.13;4.63;;;10.80;49.50;;;;;;6017338;23;20029;-84
2021/04/01 09:21:05;;;;;;;4.85;3.88;;;11.00;49.20;;;;;;5994226;23;20469;-83
2021/04/01 09:23:46;;;;;;;12.13;7.80;;;11.20;48.70;;;;;;5992860;23;20045;-83
2021/04/01 09:26:14;;;;;;;9.93;6.07;;;11.40;48.30;;;;;;6014896;23;20036;-84
2021/04/01 09:28:43;;;;;;;8.93;6.00;;;11.50;47.40;;;;;;6013384;23;20006;-83
2021/04/01 09:31:14;;;;;;;6.28;4.50;;;11.50;47.30;;;;;;6040093;23;20050;-83
2021/04/01 09:33:42;;;;;;;6.50;5.07;;;11.40;47.50;;;;;;5994537;23;20014;-83
2021/04/01 09:36:20;;;;;;;7.88;5.63;;;11.40;47.30;;;;;;6067193;23;20013;-85
2021/04/01 09:38:52;;;;;;;6.75;6.10;;;11.40;47.10;;;;;;6040756;23;20073;-84
2021/04/01 09:41:32;;;;;;;8.02;6.35;;;11.50;47.40;;;;;;5993317;23;20010;-82
2021/04/01 09:44:09;;;;;;;4.50;4.10;;;11.50;47.20;;;;;;6037243;23;20024;-84
2021/04/01 09:47:29;;;;;;;6.50;5.38;;;11.60;46.40;;;;;;5991425;23;20010;-84
2021/04/01 09:50:06;;;;;;;5.90;4.30;;;11.60;46.60;;;;;;5969898;23;20022;-84
2021/04/01 09:52:32;;;;;;;7.78;5.32;;;11.50;46.90;;;;;;5994921;23;20033;-84
2021/04/01 09:55:05;;;;;;;10.38;6.35;;;11.60;47.40;;;;;;5997497;23;20041;-82
2021/04/01 09:57:53;;;;;;;9.75;7.25;;;11.70;46.70;;;;;;6019299;23;20006;-85
2021/04/01 10:03:54;;;;;;;8.07;6.68;;;11.70;46.70;;;;;;6041368;23;20018;-85
2021/04/01 10:06:39;;;;;;;5.35;4.72;;;11.80;46.40;;;;;;5972633;23;20018;-85
2021/04/01 10:09:16;;;;;;;8.77;6.63;;;11.90;45.80;;;;;;5998444;23;20014;-84
2021/04/01 10:11:59;;;;;;;9.15;6.53;;;11.90;46.00;;;;;;6019400;23;20489;-84
2021/04/01 10:14:27;;;;;;;7.43;5.07;;;11.90;45.90;;;;;;6018059;23;20017;-82
2021/04/01 10:17:03;;;;;;;7.95;6.53;;;11.90;45.90;;;;;;6018119;23;20052;-83
2021/04/01 10:19:38;;;;;;;9.27;7.07;;;11.80;45.90;;;;;;6043688;23;20360;-83
2021/04/01 10:22:05;;;;;;;6.57;5.32;;;11.90;45.70;;;;;;5997489;23;20017;-83
2021/04/01 10:24:35;;;;;;;8.73;5.88;;;11.90;45.70;;;;;;6021009;23;20049;-84
2021/04/01 10:32:15;;;;;;;10.38;7.28;;;11.60;46.30;;;;;;6001364;23;20077;-83
2021/04/01 10:34:56;;;;;;;9.93;5.40;;;11.50;46.70;;;;;;6020444;23;20065;-82
2021/04/01 10:37:24;;;;;;;9.10;6.28;;;11.60;46.60;;;;;;5998445;23;20080;-83
2021/04/01 10:39:50;;;;;;;6.93;5.50;;;11.50;46.50;;;;;;5990871;23;20010;-82
2021/04/01 10:42:28;;;;;;;8.13;5.45;;;11.50;46.70;;;;;;6017248;23;20063;-83
2021/04/01 10:45:21;;;;;;;7.00;5.30;;;11.30;46.80;;;;;;5988264;23;20481;-82
2021/04/01 10:48:03;;;;;;;7.03;4.75;;;11.30;47.10;;;;;;6014507;23;20009;-81
2021/04/01 10:50:29;;;;;;;8.27;4.75;;;11.20;47.30;;;;;;6038428;23;20016;-84
2021/04/01 10:52:56;;;;;;;14.10;7.40;;;11.10;47.80;;;;;;6014166;23;20009;-83
2021/04/01 10:55:28;;;;;;;8.10;5.78;;;11.10;48.00;;;;;;6014524;23;20025;-83
2021/04/01 10:58:08;;;;;;;9.05;7.13;;;11.10;47.90;;;;;;6011039;23;20006;-83
2021/04/01 11:00:35;;;;;;;5.75;4.90;;;11.20;47.90;;;;;;5991895;23;20021;-83
2021/04/01 11:03:05;;;;;;;8.25;5.05;;;11.10;47.80;;;;;;6060138;23;20025;-83
2021/04/01 11:05:36;;;;;;;7.07;6.18;;;11.10;47.80;;;;;;5992081;23;20006;-83
2021/04/01 11:08:11;;;;;;;4.63;4.18;;;11.10;47.80;;;;;;5991278;23;20081;-83
2021/04/01 11:10:38;;;;;;;7.90;6.03;;;11.00;47.80;;;;;;5991647;23;20022;-84
2021/04/01 11:13:06;;;;;;;7.18;5.20;;;11.00;48.00;;;;;;6039492;23;20478;-83
2021/04/01 11:15:39;;;;;;;10.02;6.68;;;11.00;48.30;;;;;;6016877;23;20126;-85
2021/04/01 11:18:18;;;;;;;9.20;6.35;;;11.00;48.30;;;;;;6013503;23;20002;-85
2021/04/01 11:20:48;;;;;;;7.80;6.22;;;11.00;48.10;;;;;;5966472;23;20100;-83
2021/04/01 11:23:18;;;;;;;8.35;5.90;;;11.00;48.20;;;;;;6014219;23;20010;-84
2021/04/01 11:25:54;;;;;;;8.30;5.90;;;10.80;48.50;;;;;;6014166;23;20006;-84
2021/04/01 11:28:46;;;;;;;11.98;6.55;;;10.80;49.00;;;;;;5991957;23;20085;-84
2021/04/01 11:31:28;;;;;;;9.05;5.97;;;10.80;49.00;;;;;;5959259;23;20085;-84
2021/04/01 11:33:58;;;;;;;7.80;6.20;;;10.90;48.90;;;;;;5990582;23;20449;-83
2021/04/01 11:36:26;;;;;;;8.52;6.88;;;10.90;48.50;;;;;;6013535;23;20010;-88
2021/04/01 11:39:01;;;;;;;7.30;5.18;;;11.00;48.70;;;;;;6013504;23;20378;-87
2021/04/01 11:41:30;;;;;;;6.68;4.82;;;11.00;48.70;;;;;;6039591;23;20016;-86
2021/04/01 11:43:59;;;;;;;7.32;5.45;;;11.10;48.50;;;;;;6018474;23;20010;-87
2021/04/01 11:46:27;;;;;;;7.00;5.32;;;11.10;48.10;;;;;;5990388;23;20006;-86
2021/04/01 11:48:55;;;;;;;6.93;4.88;;;11.20;48.20;;;;;;6012983;23;20017;-87
2021/04/01 11:51:35;;;;;;;8.05;6.22;;;11.10;48.10;;;;;;5990086;23;20020;-86
2021/04/01 11:54:03;;;;;;;7.07;5.50;;;11.10;48.10;;;;;;5988762;23;20096;-87
2021/04/01 11:56:41;;;;;;;10.55;6.53;;;11.10;49.60;;;;;;5989491;23;20014;-87
2021/04/01 11:59:34;;;;;;;6.03;4.60;;;11.10;48.40;;;;;;6015234;23;20006;-87
2021/04/01 12:02:06;;;;;;;6.47;5.18;;;11.10;48.30;;;;;;6012419;23;20017;-87
2021/04/01 12:04:35;;;;;;;8.60;6.50;;;11.10;48.40;;;;;;6015377;23;20030;-86
2021/04/01 12:07:04;;;;;;;6.63;5.57;;;11.10;48.40;;;;;;6012401;23;20010;-89
2021/04/01 12:09:31;;;;;;;5.32;4.30;;;11.10;48.50;;;;;;5993896;23;20084;-88
2021/04/01 12:11:57;;;;;;;12.02;6.68;;;11.00;48.70;;;;;;6020353;23;20006;-88
2021/04/01 12:14:33;;;;;;;6.28;4.65;;;11.00;48.60;;;;;;6016587;23;20033;-87
2021/04/01 12:17:01;;;;;;;13.13;10.13;;;11.00;48.80;;;;;;6065617;23;20010;-87
2021/04/01 12:19:28;;;;;;;12.77;9.18;;;11.00;48.90;;;;;;5986030;23;20014;-86
2021/04/01 12:21:55;;;;;;;8.13;6.47;;;11.00;49.00;;;;;;5990933;23;20006;-85
2021/04/01 12:24:21;;;;;;;6.20;5.10;;;11.00;49.00;;;;;;5991553;23;20120;-87
2021/04/01 12:26:52;;;;;;;9.05;6.63;;;11.00;49.00;;;;;;6013806;23;20020;-88
2021/04/01 12:29:19;;;;;;;9.15;6.13;;;11.00;49.00;;;;;;6016240;23;20006;-85
2021/04/01 12:31:52;;;;;;;8.15;5.55;;;11.10;49.10;;;;;;5991482;23;20010;-87
2021/04/01 12:34:28;;;;;;;7.53;5.80;;;11.10;49.10;;;;;;6015216;23;20038;-88
2021/04/01 12:36:55;;;;;;;7.72;6.53;;;11.20;49.00;;;;;;6014929;23;20033;-87
2021/04/01 12:39:30;;;;;;;11.27;7.05;;;11.20;49.10;;;;;;5992256;23;20006;-88
2021/04/01 12:41:56;;;;;;;5.88;5.03;;;11.20;49.10;;;;;;6018196;23;20050;-90
2021/04/01 12:44:38;;;;;;;5.40;4.40;;;11.20;49.20;;;;;;6021621;23;20010;-91
2021/04/01 12:47:09;;;;;;;9.27;7.15;;;11.20;49.20;;;;;;5979457;23;20037;-87
2021/04/01 12:49:36;;;;;;;7.85;6.05;;;11.20;49.10;;;;;;6004656;23;20013;-86
2021/04/01 12:52:07;;;;;;;;;;;11.10;49.10;;;;;;6024106;23;20021;-85
2021/04/01 12:54:37;;;;;;;10.18;6.32;;;11.10;49.60;;;;;;5997096;23;19928;-85
2021/04/01 12:57:12;;;;;;;7.13;4.88;;;11.00;49.80;;;;;;6033661;23;20021;-88
2021/04/01 12:59:48;;;;;;;8.85;6.57;;;11.00;50.00;;;;;;6035246;23;20030;-88
2021/04/01 13:02:16;;;;;;;11.10;8.15;;;11.10;50.00;;;;;;6061860;23;20022;-87
2021/04/01 13:04:58;;;;;;;8.30;5.90;;;11.20;49.90;;;;;;6035704;23;20014;-86
2021/04/01 13:07:31;;;;;;;9.68;7.43;;;11.20;49.80;;;;;;6012907;23;20017;-86
2021/04/01 13:12:48;;;;;;;7.63;6.03;;;11.20;49.60;;;;;;6014478;23;20018;-85
2021/04/01 13:15:24;;;;;;;5.03;4.22;;;11.20;49.90;;;;;;6050277;23;20033;-86
2021/04/01 13:17:57;;;;;;;10.90;7.97;;;11.10;51.20;;;;;;6057533;23;20025;-85
2021/04/01 13:20:28;;;;;;;6.97;6.28;;;11.10;50.20;;;;;;6124429;23;20013;-84
2021/04/01 13:25:35;;;;;;;17.17;7.50;;;11.00;50.40;;;;;;6124419;23;20017;-84
2021/04/01 13:28:08;;;;;;;15.43;8.48;;;11.00;50.60;;;;;;6075808;23;20052;-86
2021/04/01 13:30:48;;;;;;;5.55;4.72;;;11.00;50.80;;;;;;6117502;23;20037;-88
2021/04/01 13:33:33;;;;;;;12.40;8.70;;;11.00;50.80;;;;;;6052190;23;20028;-83
2021/04/01 13:39:08;;;;;;;10.52;7.13;;;11.00;50.90;;;;;;6075796;23;20040;-86
2021/04/01 13:45:08;;;;;;;17.20;10.13;;;10.90;51.00;;;;;;6114463;23;20021;-86
2021/04/01 13:47:44;;;;;;;7.07;4.20;;;11.00;51.00;;;;;;6120915;23;20017;-86
2021/04/01 13:50:37;;;;;;;15.32;8.82;;;10.90;51.00;;;;;;6120757;23;20017;-86
2021/04/01 13:53:46;;;;;;;7.55;5.72;;;10.90;51.00;;;;;;6120228;23;20017;-87
2021/04/01 13:56:26;;;;;;;6.45;5.47;;;10.90;51.20;;;;;;6079647;23;20068;-86
2021/04/01 14:10:36;;;;;;;12.10;7.35;;;10.80;51.50;;;;;;6081101;23;20101;-88
2021/04/01 14:13:05;;;;;;;9.02;6.50;;;10.80;51.40;;;;;;6137950;23;20090;-87
2021/04/01 14:15:44;;;;;;;8.95;6.45;;;10.90;51.40;;;;;;6100007;23;20099;-88
2021/04/01 14:18:13;;;;;;;11.18;7.75;;;10.90;51.30;;;;;;6102283;23;20139;-86
2021/04/01 14:21:09;;;;;;;7.80;5.85;;;10.90;51.40;;;;;;6078090;23;20551;-87
2021/04/01 14:24:21;;;;;;;16.55;10.40;;;10.90;51.30;;;;;;6101806;23;20009;-88
2021/04/01 14:27:32;;;;;;;8.43;6.40;;;10.80;51.40;;;;;;6129238;23;20036;-88
2021/04/01 14:30:07;;;;;;;7.82;5.00;;;10.80;51.40;;;;;;6149726;23;20135;-88
2021/04/01 14:32:49;;;;;;;9.10;6.57;;;10.80;51.30;;;;;;6099566;23;20024;-88
2021/04/01 14:35:25;;;;;;;13.57;9.27;;;10.80;51.40;;;;;;6102503;23;20025;-88
2021/04/01 14:37:58;;;;;;;;;;;10.70;51.50;;;;;;6054175;23;20025;-87
2021/04/01 14:40:50;;;;;;;14.18;8.20;;;10.70;51.80;;;;;;6102416;23;19927;-87
2021/04/01 14:43:35;;;;;;;9.93;6.68;;;10.70;51.60;;;;;;6101012;23;20021;-86
2021/04/01 14:46:10;;;;;;;11.82;7.45;;;10.80;51.50;;;;;;6147512;23;20108;-86
2021/04/01 14:48:45;;;;;;;12.57;8.18;;;10.80;51.30;;;;;;6098060;23;20083;-86
2021/04/01 14:51:20;;;;;;;9.40;8.25;;;10.90;51.30;;;;;;6053713;23;20024;-85
2021/04/01 14:54:22;;;;;;;12.95;8.15;;;10.90;51.20;;;;;;6095178;23;20365;-87
2021/04/01 14:57:12;;;;;;;13.85;8.23;;;10.80;51.20;;;;;;6127105;23;20112;-85
2021/04/01 15:00:09;;;;;;;8.75;6.90;;;10.80;51.20;;;;;;6126448;23;20431;-87
2021/04/01 15:03:03;;;;;;;16.60;9.90;;;10.80;51.30;;;;;;6123584;23;20029;-89
2021/04/01 15:05:36;;;;;;;14.90;9.80;;;10.80;51.30;;;;;;6099390;23;20020;-87
2021/04/01 15:08:15;;;;;;;13.30;7.20;;;10.80;51.40;;;;;;6127354;23;20035;-88
2021/04/01 15:10:47;;;;;;;13.55;10.20;;;10.80;51.40;;;;;;6139424;23;20017;-88
2021/04/01 15:13:20;;;;;;;15.05;10.35;;;10.90;51.50;;;;;;6130672;23;20025;-86
2021/04/01 15:16:10;;;;;;;8.00;5.90;;;10.90;51.40;;;;;;6128781;23;20111;-86
2021/04/01 15:18:41;;;;;;;12.77;8.02;;;10.90;51.30;;;;;;6107782;23;20021;-88